sensor_id;sensor_type;location;lat;lon;timestamp;P1;durP1;ratioP1;P2;durP2;ratioP2
6785;SDS011;3430;51.192;6.048;2022-11-20T00:01:29;11.80;;;7.80;;
6785;SDS011;3430;51.192;6.048;2022-11-20T00:03:55;11.07;;;7.57;;
6785;SDS011;3430;51.192;6.048;2022-11-20T00:06:21;10.30;;;7.57;;
6785;SDS011;3430;51.192;6.048;2022-11-20T00:08:46;10.27;;;8.10;;
6785;SDS011;3430;51.192;6.048;2022-11-20T00:13:37;11.90;;;8.13;;
6785;SDS011;3430;51.192;6.048;2022-11-20T00:16:04;11.13;;;8.33;;
6785;SDS011;3430;51.192;6.048;2022-11-20T00:18:30;10.30;;;7.53;;
6785;SDS011;3430;51.192;6.048;2022-11-20T00:21:05;15.67;;;7.20;;
6785;SDS011;3430;51.192;6.048;2022-11-20T00:23:31;10.20;;;7.80;;
6785;SDS011;3430;51.192;6.048;2022-11-20T00:26:00;9.57;;;7.30;;
6785;SDS011;3430;51.192;6.048;2022-11-20T00:28:25;9.63;;;7.70;;
6785;SDS011;3430;51.192;6.048;2022-11-20T00:30:51;13.73;;;7.60;;
6785;SDS011;3430;51.192;6.048;2022-11-20T00:33:16;9.20;;;7.13;;
6785;SDS011;3430;51.192;6.048;2022-11-20T00:35:41;10.53;;;7.73;;
6785;SDS011;3430;51.192;6.048;2022-11-20T00:38:07;7.87;;;6.83;;
6785;SDS011;3430;51.192;6.048;2022-11-20T00:40:32;9.23;;;7.80;;
6785;SDS011;3430;51.192;6.048;2022-11-20T00:42:57;10.17;;;7.00;;
6785;SDS011;3430;51.192;6.048;2022-11-20T00:45:23;11.47;;;7.13;;
6785;SDS011;3430;51.192;6.048;2022-11-20T00:47:48;9.80;;;7.03;;
6785;SDS011;3430;51.192;6.048;2022-11-20T00:50:13;10.00;;;7.20;;
6785;SDS011;3430;51.192;6.048;2022-11-20T00:52:38;10.33;;;7.03;;
6785;SDS011;3430;51.192;6.048;2022-11-20T00:55:04;10.50;;;7.83;;
6785;SDS011;3430;51.192;6.048;2022-11-20T00:57:29;10.17;;;7.10;;
6785;SDS011;3430;51.192;6.048;2022-11-20T00:59:55;12.03;;;7.80;;
6785;SDS011;3430;51.192;6.048;2022-11-20T01:02:20;9.60;;;7.30;;
6785;SDS011;3430;51.192;6.048;2022-11-20T01:04:46;10.40;;;7.33;;
6785;SDS011;3430;51.192;6.048;2022-11-20T01:07:11;13.33;;;8.57;;
6785;SDS011;3430;51.192;6.048;2022-11-20T01:09:36;8.40;;;7.33;;
6785;SDS011;3430;51.192;6.048;2022-11-20T01:12:02;10.00;;;6.87;;
6785;SDS011;3430;51.192;6.048;2022-11-20T01:14:27;8.30;;;7.33;;
6785;SDS011;3430;51.192;6.048;2022-11-20T01:16:53;8.50;;;7.60;;
6785;SDS011;3430;51.192;6.048;2022-11-20T01:19:19;9.33;;;7.27;;
6785;SDS011;3430;51.192;6.048;2022-11-20T01:21:46;9.77;;;7.40;;
6785;SDS011;3430;51.192;6.048;2022-11-20T01:24:13;9.20;;;7.50;;
6785;SDS011;3430;51.192;6.048;2022-11-20T01:26:39;7.77;;;6.93;;
6785;SDS011;3430;51.192;6.048;2022-11-20T01:29:06;7.70;;;6.27;;
6785;SDS011;3430;51.192;6.048;2022-11-20T01:31:32;10.20;;;6.90;;
6785;SDS011;3430;51.192;6.048;2022-11-20T01:33:59;9.90;;;6.33;;
6785;SDS011;3430;51.192;6.048;2022-11-20T01:36:25;9.20;;;6.80;;
6785;SDS011;3430;51.192;6.048;2022-11-20T01:38:52;10.17;;;7.23;;
6785;SDS011;3430;51.192;6.048;2022-11-20T01:41:18;8.80;;;6.90;;
6785;SDS011;3430;51.192;6.048;2022-11-20T01:44:03;8.13;;;6.73;;
6785;SDS011;3430;51.192;6.048;2022-11-20T01:46:28;8.63;;;7.33;;
6785;SDS011;3430;51.192;6.048;2022-11-20T01:51:29;8.43;;;7.10;;
6785;SDS011;3430;51.192;6.048;2022-11-20T01:53:57;8.60;;;6.70;;
6785;SDS011;3430;51.192;6.048;2022-11-20T01:56:24;8.07;;;6.67;;
6785;SDS011;3430;51.192;6.048;2022-11-20T01:58:51;9.73;;;7.20;;
6785;SDS011;3430;51.192;6.048;2022-11-20T02:01:19;8.47;;;6.43;;
6785;SDS011;3430;51.192;6.048;2022-11-20T02:03:45;10.17;;;6.57;;
6785;SDS011;3430;51.192;6.048;2022-11-20T02:06:30;12.37;;;7.50;;
6785;SDS011;3430;51.192;6.048;2022-11-20T02:08:56;8.93;;;6.60;;
6785;SDS011;3430;51.192;6.048;2022-11-20T02:11:22;9.27;;;6.83;;
6785;SDS011;3430;51.192;6.048;2022-11-20T02:13:47;9.97;;;6.63;;
6785;SDS011;3430;51.192;6.048;2022-11-20T02:16:21;11.13;;;7.03;;
6785;SDS011;3430;51.192;6.048;2022-11-20T02:18:47;8.37;;;6.40;;
6785;SDS011;3430;51.192;6.048;2022-11-20T02:23:56;10.07;;;7.10;;
6785;SDS011;3430;51.192;6.048;2022-11-20T02:26:22;9.70;;;7.17;;
6785;SDS011;3430;51.192;6.048;2022-11-20T02:28:48;8.43;;;7.20;;
6785;SDS011;3430;51.192;6.048;2022-11-20T02:31:14;10.27;;;7.47;;
6785;SDS011;3430;51.192;6.048;2022-11-20T02:33:39;9.53;;;7.00;;
6785;SDS011;3430;51.192;6.048;2022-11-20T02:36:04;10.47;;;6.60;;
6785;SDS011;3430;51.192;6.048;2022-11-20T02:38:30;9.87;;;7.20;;
6785;SDS011;3430;51.192;6.048;2022-11-20T02:40:56;11.33;;;6.77;;
6785;SDS011;3430;51.192;6.048;2022-11-20T02:43:22;9.37;;;7.00;;
6785;SDS011;3430;51.192;6.048;2022-11-20T02:45:47;8.97;;;7.47;;
6785;SDS011;3430;51.192;6.048;2022-11-20T02:48:12;9.03;;;6.97;;
6785;SDS011;3430;51.192;6.048;2022-11-20T02:50:38;8.47;;;6.37;;
6785;SDS011;3430;51.192;6.048;2022-11-20T02:53:04;11.43;;;8.27;;
6785;SDS011;3430;51.192;6.048;2022-11-20T02:55:29;9.33;;;7.37;;
6785;SDS011;3430;51.192;6.048;2022-11-20T02:57:55;8.50;;;6.83;;
6785;SDS011;3430;51.192;6.048;2022-11-20T03:00:20;8.73;;;6.30;;
6785;SDS011;3430;51.192;6.048;2022-11-20T03:02:46;9.43;;;7.17;;
6785;SDS011;3430;51.192;6.048;2022-11-20T03:05:11;9.17;;;6.73;;
6785;SDS011;3430;51.192;6.048;2022-11-20T03:07:36;9.07;;;7.13;;
6785;SDS011;3430;51.192;6.048;2022-11-20T03:10:02;7.80;;;6.67;;
6785;SDS011;3430;51.192;6.048;2022-11-20T03:12:28;10.07;;;7.10;;
6785;SDS011;3430;51.192;6.048;2022-11-20T03:14:53;11.37;;;7.57;;
6785;SDS011;3430;51.192;6.048;2022-11-20T03:17:18;8.87;;;6.63;;
6785;SDS011;3430;51.192;6.048;2022-11-20T03:19:44;9.70;;;6.97;;
6785;SDS011;3430;51.192;6.048;2022-11-20T03:22:09;8.43;;;6.57;;
6785;SDS011;3430;51.192;6.048;2022-11-20T03:24:35;7.80;;;6.40;;
6785;SDS011;3430;51.192;6.048;2022-11-20T03:27:00;9.03;;;7.07;;
6785;SDS011;3430;51.192;6.048;2022-11-20T03:29:25;7.33;;;6.50;;
6785;SDS011;3430;51.192;6.048;2022-11-20T03:31:51;9.53;;;6.83;;
6785;SDS011;3430;51.192;6.048;2022-11-20T03:34:16;9.63;;;7.50;;
6785;SDS011;3430;51.192;6.048;2022-11-20T03:36:42;11.27;;;6.90;;
6785;SDS011;3430;51.192;6.048;2022-11-20T03:39:07;10.17;;;7.00;;
6785;SDS011;3430;51.192;6.048;2022-11-20T03:41:37;13.10;;;7.67;;
6785;SDS011;3430;51.192;6.048;2022-11-20T03:44:03;7.90;;;6.70;;
6785;SDS011;3430;51.192;6.048;2022-11-20T03:46:29;9.47;;;7.47;;
6785;SDS011;3430;51.192;6.048;2022-11-20T03:48:54;8.63;;;6.47;;
6785;SDS011;3430;51.192;6.048;2022-11-20T03:51:21;11.27;;;6.60;;
6785;SDS011;3430;51.192;6.048;2022-11-20T03:53:47;12.23;;;7.40;;
6785;SDS011;3430;51.192;6.048;2022-11-20T03:56:13;8.57;;;6.70;;
6785;SDS011;3430;51.192;6.048;2022-11-20T03:58:39;8.50;;;6.23;;
6785;SDS011;3430;51.192;6.048;2022-11-20T04:01:12;11.30;;;6.93;;
6785;SDS011;3430;51.192;6.048;2022-11-20T04:03:38;8.63;;;6.40;;
6785;SDS011;3430;51.192;6.048;2022-11-20T04:06:05;8.33;;;6.10;;
6785;SDS011;3430;51.192;6.048;2022-11-20T04:08:30;8.57;;;6.60;;
6785;SDS011;3430;51.192;6.048;2022-11-20T04:10:56;10.27;;;6.80;;
6785;SDS011;3430;51.192;6.048;2022-11-20T04:13:21;9.03;;;7.10;;
6785;SDS011;3430;51.192;6.048;2022-11-20T04:15:46;7.73;;;6.37;;
6785;SDS011;3430;51.192;6.048;2022-11-20T04:18:11;9.80;;;7.43;;
6785;SDS011;3430;51.192;6.048;2022-11-20T04:20:36;10.63;;;6.77;;
6785;SDS011;3430;51.192;6.048;2022-11-20T04:23:02;9.13;;;6.40;;
6785;SDS011;3430;51.192;6.048;2022-11-20T04:25:27;8.33;;;6.63;;
6785;SDS011;3430;51.192;6.048;2022-11-20T04:27:52;8.37;;;6.17;;
6785;SDS011;3430;51.192;6.048;2022-11-20T04:30:18;7.97;;;6.73;;
6785;SDS011;3430;51.192;6.048;2022-11-20T04:32:43;7.50;;;6.60;;
6785;SDS011;3430;51.192;6.048;2022-11-20T04:35:08;9.87;;;7.27;;
6785;SDS011;3430;51.192;6.048;2022-11-20T04:37:33;9.13;;;7.17;;
6785;SDS011;3430;51.192;6.048;2022-11-20T04:40:02;8.97;;;6.83;;
6785;SDS011;3430;51.192;6.048;2022-11-20T04:42:27;9.67;;;7.00;;
6785;SDS011;3430;51.192;6.048;2022-11-20T04:44:56;9.47;;;7.07;;
6785;SDS011;3430;51.192;6.048;2022-11-20T04:47:21;9.37;;;6.53;;
6785;SDS011;3430;51.192;6.048;2022-11-20T04:49:47;7.50;;;6.67;;
6785;SDS011;3430;51.192;6.048;2022-11-20T04:52:12;8.23;;;6.80;;
6785;SDS011;3430;51.192;6.048;2022-11-20T04:54:37;10.87;;;7.20;;
6785;SDS011;3430;51.192;6.048;2022-11-20T04:57:03;9.57;;;7.80;;
6785;SDS011;3430;51.192;6.048;2022-11-20T04:59:28;10.37;;;7.03;;
6785;SDS011;3430;51.192;6.048;2022-11-20T05:01:53;8.23;;;6.47;;
6785;SDS011;3430;51.192;6.048;2022-11-20T05:04:19;7.67;;;6.00;;
6785;SDS011;3430;51.192;6.048;2022-11-20T05:06:44;7.30;;;6.17;;
6785;SDS011;3430;51.192;6.048;2022-11-20T05:09:10;9.73;;;7.07;;
6785;SDS011;3430;51.192;6.048;2022-11-20T05:11:36;7.93;;;6.70;;
6785;SDS011;3430;51.192;6.048;2022-11-20T05:14:01;11.23;;;6.80;;
6785;SDS011;3430;51.192;6.048;2022-11-20T05:16:26;8.03;;;6.53;;
6785;SDS011;3430;51.192;6.048;2022-11-20T05:18:53;9.80;;;6.63;;
6785;SDS011;3430;51.192;6.048;2022-11-20T05:21:19;7.97;;;6.40;;
6785;SDS011;3430;51.192;6.048;2022-11-20T05:23:44;11.83;;;6.93;;
6785;SDS011;3430;51.192;6.048;2022-11-20T05:26:14;9.83;;;6.10;;
6785;SDS011;3430;51.192;6.048;2022-11-20T05:28:40;8.40;;;6.50;;
6785;SDS011;3430;51.192;6.048;2022-11-20T05:31:10;8.37;;;7.00;;
6785;SDS011;3430;51.192;6.048;2022-11-20T05:33:36;8.60;;;6.73;;
6785;SDS011;3430;51.192;6.048;2022-11-20T05:36:02;7.77;;;6.77;;
6785;SDS011;3430;51.192;6.048;2022-11-20T05:38:28;8.40;;;6.77;;
6785;SDS011;3430;51.192;6.048;2022-11-20T05:40:53;9.63;;;7.40;;
6785;SDS011;3430;51.192;6.048;2022-11-20T05:43:18;8.07;;;6.80;;
6785;SDS011;3430;51.192;6.048;2022-11-20T05:45:51;8.80;;;6.70;;
6785;SDS011;3430;51.192;6.048;2022-11-20T05:48:16;10.23;;;6.70;;
6785;SDS011;3430;51.192;6.048;2022-11-20T05:50:42;9.27;;;6.70;;
6785;SDS011;3430;51.192;6.048;2022-11-20T05:53:07;9.30;;;7.00;;
6785;SDS011;3430;51.192;6.048;2022-11-20T05:55:32;8.07;;;6.23;;
6785;SDS011;3430;51.192;6.048;2022-11-20T05:57:57;9.57;;;7.30;;
6785;SDS011;3430;51.192;6.048;2022-11-20T06:00:23;8.73;;;7.00;;
6785;SDS011;3430;51.192;6.048;2022-11-20T06:02:48;8.80;;;6.63;;
6785;SDS011;3430;51.192;6.048;2022-11-20T06:05:13;7.77;;;6.00;;
6785;SDS011;3430;51.192;6.048;2022-11-20T06:07:39;9.07;;;6.37;;
6785;SDS011;3430;51.192;6.048;2022-11-20T06:10:04;10.40;;;7.00;;
6785;SDS011;3430;51.192;6.048;2022-11-20T06:12:31;7.40;;;6.60;;
6785;SDS011;3430;51.192;6.048;2022-11-20T06:14:56;8.13;;;6.73;;
6785;SDS011;3430;51.192;6.048;2022-11-20T06:17:21;8.67;;;6.43;;
6785;SDS011;3430;51.192;6.048;2022-11-20T06:19:47;10.23;;;6.93;;
6785;SDS011;3430;51.192;6.048;2022-11-20T06:22:12;11.23;;;6.53;;
6785;SDS011;3430;51.192;6.048;2022-11-20T06:24:37;9.93;;;6.53;;
6785;SDS011;3430;51.192;6.048;2022-11-20T06:27:02;7.63;;;6.33;;
6785;SDS011;3430;51.192;6.048;2022-11-20T06:29:28;9.07;;;6.73;;
6785;SDS011;3430;51.192;6.048;2022-11-20T06:31:53;8.07;;;6.40;;
6785;SDS011;3430;51.192;6.048;2022-11-20T06:34:19;9.97;;;6.60;;
6785;SDS011;3430;51.192;6.048;2022-11-20T06:36:44;8.03;;;6.27;;
6785;SDS011;3430;51.192;6.048;2022-11-20T06:39:09;7.83;;;6.87;;
6785;SDS011;3430;51.192;6.048;2022-11-20T06:41:34;7.67;;;6.20;;
6785;SDS011;3430;51.192;6.048;2022-11-20T06:44:00;8.47;;;6.77;;
6785;SDS011;3430;51.192;6.048;2022-11-20T06:46:28;8.80;;;6.77;;
6785;SDS011;3430;51.192;6.048;2022-11-20T06:48:54;7.97;;;6.43;;
6785;SDS011;3430;51.192;6.048;2022-11-20T06:51:19;7.07;;;6.37;;
6785;SDS011;3430;51.192;6.048;2022-11-20T06:53:46;7.63;;;6.40;;
6785;SDS011;3430;51.192;6.048;2022-11-20T06:56:14;8.70;;;6.37;;
6785;SDS011;3430;51.192;6.048;2022-11-20T06:58:39;8.87;;;6.27;;
6785;SDS011;3430;51.192;6.048;2022-11-20T07:01:06;9.17;;;6.67;;
6785;SDS011;3430;51.192;6.048;2022-11-20T07:03:32;8.50;;;6.67;;
6785;SDS011;3430;51.192;6.048;2022-11-20T07:05:58;9.43;;;6.70;;
6785;SDS011;3430;51.192;6.048;2022-11-20T07:08:23;8.60;;;6.47;;
6785;SDS011;3430;51.192;6.048;2022-11-20T07:10:49;8.57;;;6.80;;
6785;SDS011;3430;51.192;6.048;2022-11-20T07:13:14;9.13;;;6.80;;
6785;SDS011;3430;51.192;6.048;2022-11-20T07:15:39;8.40;;;6.70;;
6785;SDS011;3430;51.192;6.048;2022-11-20T07:18:05;7.47;;;6.23;;
6785;SDS011;3430;51.192;6.048;2022-11-20T07:20:30;9.23;;;6.67;;
6785;SDS011;3430;51.192;6.048;2022-11-20T07:22:56;10.57;;;6.53;;
6785;SDS011;3430;51.192;6.048;2022-11-20T07:25:22;10.40;;;7.30;;
6785;SDS011;3430;51.192;6.048;2022-11-20T07:27:47;8.53;;;6.70;;
6785;SDS011;3430;51.192;6.048;2022-11-20T07:30:16;8.17;;;7.03;;
6785;SDS011;3430;51.192;6.048;2022-11-20T07:32:41;9.43;;;7.03;;
6785;SDS011;3430;51.192;6.048;2022-11-20T07:35:07;8.60;;;6.70;;
6785;SDS011;3430;51.192;6.048;2022-11-20T07:37:35;9.27;;;7.30;;
6785;SDS011;3430;51.192;6.048;2022-11-20T07:40:01;8.70;;;6.57;;
6785;SDS011;3430;51.192;6.048;2022-11-20T07:42:26;10.07;;;7.23;;
6785;SDS011;3430;51.192;6.048;2022-11-20T07:44:51;8.90;;;6.93;;
6785;SDS011;3430;51.192;6.048;2022-11-20T07:47:17;9.53;;;6.83;;
6785;SDS011;3430;51.192;6.048;2022-11-20T07:49:42;10.00;;;6.73;;
6785;SDS011;3430;51.192;6.048;2022-11-20T07:52:07;10.50;;;6.73;;
6785;SDS011;3430;51.192;6.048;2022-11-20T07:54:33;9.37;;;6.73;;
6785;SDS011;3430;51.192;6.048;2022-11-20T07:56:58;8.17;;;6.60;;
6785;SDS011;3430;51.192;6.048;2022-11-20T07:59:23;7.93;;;6.67;;
6785;SDS011;3430;51.192;6.048;2022-11-20T08:01:48;10.60;;;8.23;;
6785;SDS011;3430;51.192;6.048;2022-11-20T08:04:14;10.13;;;7.53;;
6785;SDS011;3430;51.192;6.048;2022-11-20T08:06:41;10.93;;;7.20;;
6785;SDS011;3430;51.192;6.048;2022-11-20T08:09:06;9.27;;;7.10;;
6785;SDS011;3430;51.192;6.048;2022-11-20T08:11:31;11.00;;;7.90;;
6785;SDS011;3430;51.192;6.048;2022-11-20T08:14:15;12.83;;;7.57;;
6785;SDS011;3430;51.192;6.048;2022-11-20T08:16:45;10.20;;;7.43;;
6785;SDS011;3430;51.192;6.048;2022-11-20T08:19:11;11.70;;;7.87;;
6785;SDS011;3430;51.192;6.048;2022-11-20T08:21:37;12.87;;;8.03;;
6785;SDS011;3430;51.192;6.048;2022-11-20T08:24:03;10.87;;;7.30;;
6785;SDS011;3430;51.192;6.048;2022-11-20T08:26:28;10.67;;;7.20;;
6785;SDS011;3430;51.192;6.048;2022-11-20T08:28:54;16.40;;;7.50;;
6785;SDS011;3430;51.192;6.048;2022-11-20T08:31:20;14.47;;;8.10;;
6785;SDS011;3430;51.192;6.048;2022-11-20T08:33:45;13.33;;;7.77;;
6785;SDS011;3430;51.192;6.048;2022-11-20T08:36:11;12.07;;;7.70;;
6785;SDS011;3430;51.192;6.048;2022-11-20T08:38:36;15.93;;;8.73;;
6785;SDS011;3430;51.192;6.048;2022-11-20T08:41:02;21.17;;;12.07;;
6785;SDS011;3430;51.192;6.048;2022-11-20T08:43:46;18.67;;;10.10;;
6785;SDS011;3430;51.192;6.048;2022-11-20T08:46:12;16.10;;;9.57;;
6785;SDS011;3430;51.192;6.048;2022-11-20T08:48:37;20.03;;;11.43;;
6785;SDS011;3430;51.192;6.048;2022-11-20T08:51:02;22.03;;;10.97;;
6785;SDS011;3430;51.192;6.048;2022-11-20T08:53:28;22.70;;;11.07;;
6785;SDS011;3430;51.192;6.048;2022-11-20T08:55:53;16.67;;;9.87;;
6785;SDS011;3430;51.192;6.048;2022-11-20T08:58:18;20.83;;;11.10;;
6785;SDS011;3430;51.192;6.048;2022-11-20T09:00:44;19.70;;;11.57;;
6785;SDS011;3430;51.192;6.048;2022-11-20T09:03:09;25.47;;;12.67;;
6785;SDS011;3430;51.192;6.048;2022-11-20T09:05:34;20.53;;;11.67;;
6785;SDS011;3430;51.192;6.048;2022-11-20T09:07:59;24.30;;;13.20;;
6785;SDS011;3430;51.192;6.048;2022-11-20T09:10:27;21.10;;;12.53;;
6785;SDS011;3430;51.192;6.048;2022-11-20T09:12:53;23.57;;;12.87;;
6785;SDS011;3430;51.192;6.048;2022-11-20T09:15:20;20.13;;;11.93;;
6785;SDS011;3430;51.192;6.048;2022-11-20T09:17:52;25.13;;;11.53;;
6785;SDS011;3430;51.192;6.048;2022-11-20T09:20:17;19.20;;;11.80;;
6785;SDS011;3430;51.192;6.048;2022-11-20T09:22:43;23.90;;;13.03;;
6785;SDS011;3430;51.192;6.048;2022-11-20T09:25:08;19.73;;;11.77;;
6785;SDS011;3430;51.192;6.048;2022-11-20T09:27:33;26.73;;;12.77;;
6785;SDS011;3430;51.192;6.048;2022-11-20T09:30:00;20.67;;;11.47;;
6785;SDS011;3430;51.192;6.048;2022-11-20T09:32:31;21.83;;;11.50;;
6785;SDS011;3430;51.192;6.048;2022-11-20T09:34:57;18.80;;;10.40;;
6785;SDS011;3430;51.192;6.048;2022-11-20T09:37:22;21.50;;;12.07;;
6785;SDS011;3430;51.192;6.048;2022-11-20T09:39:47;20.97;;;11.33;;
6785;SDS011;3430;51.192;6.048;2022-11-20T09:42:16;18.57;;;11.93;;
6785;SDS011;3430;51.192;6.048;2022-11-20T09:44:48;19.93;;;11.63;;
6785;SDS011;3430;51.192;6.048;2022-11-20T09:47:22;20.50;;;12.80;;
6785;SDS011;3430;51.192;6.048;2022-11-20T09:55:00;20.47;;;11.67;;
6785;SDS011;3430;51.192;6.048;2022-11-20T09:57:31;16.93;;;11.23;;
6785;SDS011;3430;51.192;6.048;2022-11-20T09:59:59;18.87;;;11.37;;
6785;SDS011;3430;51.192;6.048;2022-11-20T10:02:30;17.20;;;10.20;;
6785;SDS011;3430;51.192;6.048;2022-11-20T10:05:04;19.97;;;10.10;;
6785;SDS011;3430;51.192;6.048;2022-11-20T10:07:30;16.00;;;10.37;;
6785;SDS011;3430;51.192;6.048;2022-11-20T10:09:57;20.87;;;11.30;;
6785;SDS011;3430;51.192;6.048;2022-11-20T10:12:26;16.37;;;10.67;;
6785;SDS011;3430;51.192;6.048;2022-11-20T10:19:59;18.27;;;11.40;;
6785;SDS011;3430;51.192;6.048;2022-11-20T10:25:15;16.40;;;10.23;;
6785;SDS011;3430;51.192;6.048;2022-11-20T10:30:10;15.50;;;9.80;;
6785;SDS011;3430;51.192;6.048;2022-11-20T10:32:37;17.10;;;10.53;;
6785;SDS011;3430;51.192;6.048;2022-11-20T10:35:05;18.30;;;11.60;;
6785;SDS011;3430;51.192;6.048;2022-11-20T10:37:33;14.93;;;9.87;;
6785;SDS011;3430;51.192;6.048;2022-11-20T10:42:34;21.07;;;9.83;;
6785;SDS011;3430;51.192;6.048;2022-11-20T10:45:04;18.60;;;11.30;;
6785;SDS011;3430;51.192;6.048;2022-11-20T10:47:34;18.50;;;10.17;;
6785;SDS011;3430;51.192;6.048;2022-11-20T10:50:04;16.50;;;10.03;;
6785;SDS011;3430;51.192;6.048;2022-11-20T11:00:11;14.30;;;9.87;;
6785;SDS011;3430;51.192;6.048;2022-11-20T11:05:30;13.13;;;8.77;;
6785;SDS011;3430;51.192;6.048;2022-11-20T11:07:54;16.63;;;10.33;;
6785;SDS011;3430;51.192;6.048;2022-11-20T11:12:46;18.13;;;10.73;;
6785;SDS011;3430;51.192;6.048;2022-11-20T11:15:14;13.33;;;9.37;;
6785;SDS011;3430;51.192;6.048;2022-11-20T11:17:46;16.70;;;10.20;;
6785;SDS011;3430;51.192;6.048;2022-11-20T11:20:49;17.47;;;10.27;;
6785;SDS011;3430;51.192;6.048;2022-11-20T11:23:03;13.50;;;9.57;;
6785;SDS011;3430;51.192;6.048;2022-11-20T11:25:30;16.17;;;10.67;;
6785;SDS011;3430;51.192;6.048;2022-11-20T11:27:57;16.97;;;9.60;;
6785;SDS011;3430;51.192;6.048;2022-11-20T11:30:23;14.70;;;9.20;;
6785;SDS011;3430;51.192;6.048;2022-11-20T11:32:49;14.20;;;9.70;;
6785;SDS011;3430;51.192;6.048;2022-11-20T11:35:21;13.60;;;9.50;;
6785;SDS011;3430;51.192;6.048;2022-11-20T11:37:47;13.43;;;9.80;;
6785;SDS011;3430;51.192;6.048;2022-11-20T11:40:14;15.37;;;9.57;;
6785;SDS011;3430;51.192;6.048;2022-11-20T11:42:41;15.27;;;9.27;;
6785;SDS011;3430;51.192;6.048;2022-11-20T11:45:07;15.80;;;9.03;;
6785;SDS011;3430;51.192;6.048;2022-11-20T11:47:36;15.70;;;9.27;;
6785;SDS011;3430;51.192;6.048;2022-11-20T11:52:27;15.43;;;9.87;;
6785;SDS011;3430;51.192;6.048;2022-11-20T11:55:03;12.47;;;8.27;;
6785;SDS011;3430;51.192;6.048;2022-11-20T12:00:10;15.30;;;9.53;;
6785;SDS011;3430;51.192;6.048;2022-11-20T12:07:41;14.83;;;9.00;;
6785;SDS011;3430;51.192;6.048;2022-11-20T12:10:13;15.33;;;9.07;;
6785;SDS011;3430;51.192;6.048;2022-11-20T12:12:40;14.20;;;8.60;;
6785;SDS011;3430;51.192;6.048;2022-11-20T12:15:11;13.10;;;9.23;;
6785;SDS011;3430;51.192;6.048;2022-11-20T12:17:39;13.30;;;9.17;;
6785;SDS011;3430;51.192;6.048;2022-11-20T12:20:11;15.17;;;9.23;;
6785;SDS011;3430;51.192;6.048;2022-11-20T12:30:23;14.67;;;9.27;;
6785;SDS011;3430;51.192;6.048;2022-11-20T12:48:23;14.47;;;8.97;;
6785;SDS011;3430;51.192;6.048;2022-11-20T12:50:57;13.57;;;9.23;;
6785;SDS011;3430;51.192;6.048;2022-11-20T13:00:58;12.03;;;8.57;;
6785;SDS011;3430;51.192;6.048;2022-11-20T13:08:38;16.60;;;10.13;;
6785;SDS011;3430;51.192;6.048;2022-11-20T13:11:05;15.50;;;10.00;;
6785;SDS011;3430;51.192;6.048;2022-11-20T13:13:41;14.00;;;8.93;;
6785;SDS011;3430;51.192;6.048;2022-11-20T13:16:10;14.37;;;9.50;;
6785;SDS011;3430;51.192;6.048;2022-11-20T13:18:38;14.50;;;9.13;;
6785;SDS011;3430;51.192;6.048;2022-11-20T13:21:13;16.83;;;10.87;;
6785;SDS011;3430;51.192;6.048;2022-11-20T13:23:39;15.43;;;8.57;;
6785;SDS011;3430;51.192;6.048;2022-11-20T13:26:25;14.10;;;9.77;;
6785;SDS011;3430;51.192;6.048;2022-11-20T13:29:00;14.70;;;10.03;;
6785;SDS011;3430;51.192;6.048;2022-11-20T13:31:33;12.77;;;9.50;;
6785;SDS011;3430;51.192;6.048;2022-11-20T13:34:00;13.50;;;9.27;;
6785;SDS011;3430;51.192;6.048;2022-11-20T13:36:27;13.23;;;9.23;;
6785;SDS011;3430;51.192;6.048;2022-11-20T13:38:54;14.30;;;9.77;;
6785;SDS011;3430;51.192;6.048;2022-11-20T13:41:23;13.93;;;9.23;;
6785;SDS011;3430;51.192;6.048;2022-11-20T13:44:29;13.50;;;8.70;;
6785;SDS011;3430;51.192;6.048;2022-11-20T13:46:55;12.17;;;8.10;;
6785;SDS011;3430;51.192;6.048;2022-11-20T13:51:58;13.60;;;8.40;;
6785;SDS011;3430;51.192;6.048;2022-11-20T13:54:43;13.90;;;8.90;;
6785;SDS011;3430;51.192;6.048;2022-11-20T13:59:47;14.43;;;8.87;;
6785;SDS011;3430;51.192;6.048;2022-11-20T14:02:17;12.57;;;8.60;;
6785;SDS011;3430;51.192;6.048;2022-11-20T14:04:45;14.03;;;8.47;;
6785;SDS011;3430;51.192;6.048;2022-11-20T14:07:11;12.20;;;7.67;;
6785;SDS011;3430;51.192;6.048;2022-11-20T14:09:37;13.90;;;8.53;;
6785;SDS011;3430;51.192;6.048;2022-11-20T14:12:03;17.03;;;9.87;;
6785;SDS011;3430;51.192;6.048;2022-11-20T14:14:29;12.40;;;9.07;;
6785;SDS011;3430;51.192;6.048;2022-11-20T14:17:05;16.87;;;8.70;;
6785;SDS011;3430;51.192;6.048;2022-11-20T14:19:31;11.60;;;8.77;;
6785;SDS011;3430;51.192;6.048;2022-11-20T14:22:07;11.50;;;8.30;;
6785;SDS011;3430;51.192;6.048;2022-11-20T14:24:32;9.40;;;7.43;;
6785;SDS011;3430;51.192;6.048;2022-11-20T14:26:58;12.17;;;8.50;;
6785;SDS011;3430;51.192;6.048;2022-11-20T14:29:26;10.43;;;8.27;;
6785;SDS011;3430;51.192;6.048;2022-11-20T14:31:52;13.63;;;9.07;;
6785;SDS011;3430;51.192;6.048;2022-11-20T14:34:19;10.63;;;8.60;;
6785;SDS011;3430;51.192;6.048;2022-11-20T14:36:45;11.23;;;8.23;;
6785;SDS011;3430;51.192;6.048;2022-11-20T14:39:19;12.23;;;8.43;;
6785;SDS011;3430;51.192;6.048;2022-11-20T14:41:52;12.30;;;8.53;;
6785;SDS011;3430;51.192;6.048;2022-11-20T14:44:17;13.60;;;8.13;;
6785;SDS011;3430;51.192;6.048;2022-11-20T14:46:43;13.90;;;8.33;;
6785;SDS011;3430;51.192;6.048;2022-11-20T14:49:08;14.43;;;9.60;;
6785;SDS011;3430;51.192;6.048;2022-11-20T14:51:36;12.53;;;8.77;;
6785;SDS011;3430;51.192;6.048;2022-11-20T14:54:16;12.83;;;8.23;;
6785;SDS011;3430;51.192;6.048;2022-11-20T14:56:42;10.70;;;7.67;;
6785;SDS011;3430;51.192;6.048;2022-11-20T14:59:24;13.00;;;9.03;;
6785;SDS011;3430;51.192;6.048;2022-11-20T15:01:57;14.37;;;8.90;;
6785;SDS011;3430;51.192;6.048;2022-11-20T15:04:22;12.43;;;8.37;;
6785;SDS011;3430;51.192;6.048;2022-11-20T15:06:52;10.23;;;7.77;;
6785;SDS011;3430;51.192;6.048;2022-11-20T15:09:17;12.93;;;8.23;;
6785;SDS011;3430;51.192;6.048;2022-11-20T15:11:55;15.67;;;8.37;;
6785;SDS011;3430;51.192;6.048;2022-11-20T15:14:22;11.73;;;8.37;;
6785;SDS011;3430;51.192;6.048;2022-11-20T15:16:47;10.90;;;7.37;;
6785;SDS011;3430;51.192;6.048;2022-11-20T15:19:17;13.63;;;7.73;;
6785;SDS011;3430;51.192;6.048;2022-11-20T15:21:43;12.90;;;8.47;;
6785;SDS011;3430;51.192;6.048;2022-11-20T15:24:08;10.93;;;8.10;;
6785;SDS011;3430;51.192;6.048;2022-11-20T15:26:34;10.43;;;7.70;;
6785;SDS011;3430;51.192;6.048;2022-11-20T15:28:59;10.57;;;7.93;;
6785;SDS011;3430;51.192;6.048;2022-11-20T15:31:25;13.43;;;7.67;;
6785;SDS011;3430;51.192;6.048;2022-11-20T15:33:50;9.73;;;7.33;;
6785;SDS011;3430;51.192;6.048;2022-11-20T15:36:15;11.30;;;8.13;;
6785;SDS011;3430;51.192;6.048;2022-11-20T15:38:41;9.47;;;6.60;;
6785;SDS011;3430;51.192;6.048;2022-11-20T15:41:06;9.70;;;7.20;;
6785;SDS011;3430;51.192;6.048;2022-11-20T15:43:32;12.37;;;7.20;;
6785;SDS011;3430;51.192;6.048;2022-11-20T15:46:03;11.00;;;7.60;;
6785;SDS011;3430;51.192;6.048;2022-11-20T15:48:31;9.13;;;7.03;;
6785;SDS011;3430;51.192;6.048;2022-11-20T15:53:42;16.60;;;7.23;;
6785;SDS011;3430;51.192;6.048;2022-11-20T15:56:09;10.13;;;7.17;;
6785;SDS011;3430;51.192;6.048;2022-11-20T15:58:36;11.27;;;7.13;;
6785;SDS011;3430;51.192;6.048;2022-11-20T16:01:01;11.00;;;7.40;;
6785;SDS011;3430;51.192;6.048;2022-11-20T16:03:27;9.70;;;7.23;;
6785;SDS011;3430;51.192;6.048;2022-11-20T16:05:52;8.63;;;6.53;;
6785;SDS011;3430;51.192;6.048;2022-11-20T16:08:17;10.73;;;6.40;;
6785;SDS011;3430;51.192;6.048;2022-11-20T16:10:43;9.97;;;6.53;;
6785;SDS011;3430;51.192;6.048;2022-11-20T16:13:11;11.33;;;5.50;;
6785;SDS011;3430;51.192;6.048;2022-11-20T16:15:55;8.23;;;5.70;;
6785;SDS011;3430;51.192;6.048;2022-11-20T16:18:22;6.37;;;4.93;;
6785;SDS011;3430;51.192;6.048;2022-11-20T16:20:48;6.83;;;5.17;;
6785;SDS011;3430;51.192;6.048;2022-11-20T16:23:14;7.50;;;4.73;;
6785;SDS011;3430;51.192;6.048;2022-11-20T16:25:43;6.27;;;4.80;;
6785;SDS011;3430;51.192;6.048;2022-11-20T16:28:09;7.60;;;4.90;;
6785;SDS011;3430;51.192;6.048;2022-11-20T16:30:34;6.30;;;4.40;;
6785;SDS011;3430;51.192;6.048;2022-11-20T16:33:03;8.70;;;4.57;;
6785;SDS011;3430;51.192;6.048;2022-11-20T16:35:31;6.00;;;4.63;;
6785;SDS011;3430;51.192;6.048;2022-11-20T16:37:57;5.80;;;4.40;;